KBLF/BLF METAR and TAF weather

Enter ICAO airport designator
Station Type Date Time Source
KBLF METAR 2021/03/05 07:16 UTC NOAA

KBLF 050716Z AUTO 30004KT 10SM BKN018 M03/M07 A3004 RMK AO2 T10331067


Station Type Date Time Source
KBLF Decoded METAR 2021/03/05 07:16 UTC NOAA

BLUEFIELD MERCER COUNTY AIRPORT , WV, United States (KBLF) 37-18N 081-12W 873M
Mar 05, 2021 - 02:16 AM EST / 2021.03.05 0716 UTC
Wind: from the WNW (300 degrees) at 5 MPH (4 KT):0
Visibility: 10 mile(s):0
Sky conditions: mostly cloudy
Temperature: 26.1 F (-3.3 C)
Windchill: 19 F (-7 C):1
Dew Point: 19.9 F (-6.7 C)
Relative Humidity: 77%
Pressure (altimeter): 30.04 in. Hg (1017 hPa)
ob: KBLF 050716Z AUTO 30004KT 10SM BKN018 M03/M07 A3004 RMK AO2 T10331067
cycle: 7

Station Type Date Time Source
KBLF TAF 2021/03/05 06:22 UTC NOAA

TAF KBLF 050520Z 0506/0606 31011G17KT P6SM FEW015
FM050800 32008KT P6SM FEW015
FM051400 30009G17KT P6SM SKC
FM060000 30006KT P6SM SKC

Example: see airport list